Rose Lodge, Oregon
Current Conditions -  °F | °C
As of 2:15 PM on Friday 24 Oct 2014 (Local Time) from KTMK Reporting Station
Moderate Rain Moderate Rain  
Wind Chill: 55°   Ceiling: 7000
Heat Index: 55°   Visibility: 10mi
Dew Point: 52°   Wind: 9mph
Humidity: 88%   Direction: 40°NE
Pressure: 29.89"   Gusts: NA
Location:  45.02°N, 123.88°W
Report Text: KTMK 242115Z AUTO 04008KT 10SM RA SCT050 OVC070 13/11 A2989 RMK AO2
Loading
Personal Weather Stations






























Interactive Weather Map
Tropical Storm Tracking
New forecast layout! Learn more

10-Day Weather Forecast

Advertisements
Track Severe Weather on mobile